createdAt,value
2022-10-17T00:00:48.408Z,81.73
2022-10-17T00:03:31.056Z,81.55
2022-10-17T00:05:58.527Z,82.09
2022-10-17T00:08:26.240Z,82.17
2022-10-17T00:10:59.330Z,81.66
2022-10-17T00:13:27.062Z,80.91
2022-10-17T00:15:54.898Z,79.82
2022-10-17T00:18:23.011Z,74.57
2022-10-17T00:20:50.737Z,76.59
2022-10-17T00:23:18.578Z,78.50
2022-10-17T00:25:46.122Z,81.77
2022-10-17T00:28:15.966Z,82.90
2022-10-17T00:30:43.271Z,81.75
2022-10-17T00:33:11.346Z,81.87
2022-10-17T00:35:38.645Z,81.92
2022-10-17T00:38:06.371Z,82.38
2022-10-17T00:40:33.693Z,83.83
2022-10-17T00:43:01.457Z,83.26
2022-10-17T00:45:31.434Z,82.62
2022-10-17T00:48:03.797Z,81.02
2022-10-17T00:50:32.053Z,79.48
2022-10-17T00:53:02.778Z,79.50
2022-10-17T00:55:33.255Z,78.98
2022-10-17T00:58:04.899Z,79.37
2022-10-17T01:00:33.923Z,79.01
2022-10-17T01:03:01.453Z,77.39
2022-10-17T01:05:29.342Z,77.90
2022-10-17T01:07:57.250Z,77.58
2022-10-17T01:10:32.006Z,77.69
2022-10-17T01:13:08.620Z,80.01
2022-10-17T01:15:49.005Z,80.62
2022-10-17T01:18:29.691Z,79.38
2022-10-17T01:21:32.196Z,76.17
2022-10-17T01:24:40.617Z,78.35
2022-10-17T01:27:41.043Z,75.31
2022-10-17T01:30:45.149Z,75.07
2022-10-17T01:33:16.591Z,75.23
2022-10-17T01:35:52.813Z,76.94
2022-10-17T01:38:25.184Z,77.82
2022-10-17T01:40:59.889Z,78.13
2022-10-17T01:43:34.321Z,80.04
2022-10-17T01:46:10.550Z,81.44
2022-10-17T01:48:41.252Z,82.26
2022-10-17T01:51:14.660Z,82.91
2022-10-17T01:53:47.291Z,84.27
2022-10-17T01:56:17.848Z,85.47
2022-10-17T01:58:50.895Z,84.19
2022-10-17T02:01:21.337Z,83.73
2022-10-17T02:03:51.194Z,83.08
2022-10-17T02:06:18.785Z,82.91
2022-10-17T02:08:48.093Z,82.23
2022-10-17T02:11:17.702Z,83.43
2022-10-17T02:14:00.820Z,84.22
2022-10-17T02:16:37.564Z,83.42
2022-10-17T02:19:24.295Z,81.17
2022-10-17T02:21:57.842Z,80.04
2022-10-17T02:24:32.591Z,80.24
2022-10-17T02:27:08.968Z,80.09
2022-10-17T02:29:45.655Z,80.42
2022-10-17T02:34:52.873Z,79.35
2022-10-17T02:37:27.535Z,78.79
2022-10-17T02:39:58.086Z,77.50
2022-10-17T02:42:28.107Z,77.51
2022-10-17T02:44:59.212Z,77.85
2022-10-17T02:47:35.099Z,78.28
2022-10-17T02:50:02.852Z,78.39
2022-10-17T02:52:37.445Z,77.91
2022-10-17T02:55:11.204Z,78.94
2022-10-17T02:57:41.876Z,80.51
2022-10-17T03:00:13.424Z,80.27
2022-10-17T03:02:44.812Z,79.57
2022-10-17T03:05:14.501Z,82.18
2022-10-17T03:07:42.047Z,81.80
2022-10-17T03:10:09.714Z,80.41
2022-10-17T03:12:37.613Z,79.77
2022-10-17T03:15:06.502Z,79.96
2022-10-17T03:17:34.350Z,80.49
2022-10-17T03:20:03.869Z,80.71
2022-10-17T03:22:31.970Z,80.63
2022-10-17T03:24:59.390Z,83.05
2022-10-17T03:27:27.229Z,84.02
2022-10-17T03:29:54.812Z,83.21
2022-10-17T03:32:22.461Z,82.20
2022-10-17T03:34:49.744Z,81.58
2022-10-17T03:37:18.704Z,81.88
2022-10-17T03:39:45.920Z,82.61
2022-10-17T03:42:13.558Z,82.24
2022-10-17T03:44:40.768Z,82.39
2022-10-17T03:47:10.553Z,82.41
2022-10-17T03:49:40.679Z,83.50
2022-10-17T03:52:11.700Z,83.63
2022-10-17T03:54:40.237Z,82.77
2022-10-17T03:57:08.172Z,82.18
2022-10-17T03:59:35.455Z,81.68
2022-10-17T04:02:03.558Z,81.75
2022-10-17T04:04:30.842Z,81.73
2022-10-17T04:06:58.480Z,82.46
2022-10-17T04:09:25.764Z,83.39
2022-10-17T04:11:54.895Z,82.61
2022-10-17T04:14:22.174Z,82.21
2022-10-17T04:16:49.994Z,82.08
2022-10-17T04:19:17.224Z,82.09
2022-10-17T04:21:44.926Z,82.23
2022-10-17T04:24:12.176Z,82.63
2022-10-17T04:26:39.764Z,82.96
2022-10-17T04:29:08.477Z,83.71
2022-10-17T04:31:36.371Z,83.59
2022-10-17T04:34:03.748Z,83.31
2022-10-17T04:36:31.426Z,83.00
2022-10-17T04:39:00.410Z,82.09
2022-10-17T04:41:27.944Z,82.89
2022-10-17T04:43:55.243Z,83.14
2022-10-17T04:46:24.358Z,82.25
2022-10-17T04:48:51.602Z,81.59
2022-10-17T04:51:21.793Z,81.21
2022-10-17T04:53:51.769Z,81.79
2022-10-17T04:56:22.230Z,81.65
2022-10-17T04:58:49.937Z,81.38
2022-10-17T05:01:20.612Z,81.86
2022-10-17T05:03:49.717Z,81.84
2022-10-17T05:06:22.326Z,82.00
2022-10-17T05:08:50.064Z,82.04
2022-10-17T05:11:20.155Z,81.21
2022-10-17T05:13:51.077Z,81.36
2022-10-17T05:16:19.851Z,81.34
2022-10-17T05:18:52.853Z,80.94
2022-10-17T05:21:22.373Z,81.37
2022-10-17T05:23:50.413Z,81.77
2022-10-17T05:26:18.485Z,82.60
2022-10-17T05:28:45.859Z,82.78
2022-10-17T05:31:13.887Z,81.64
2022-10-17T05:33:41.454Z,82.08
2022-10-17T05:36:10.735Z,82.47
2022-10-17T05:38:38.022Z,81.72
2022-10-17T05:41:06.149Z,81.58
2022-10-17T05:43:34.226Z,80.14
2022-10-17T05:46:04.600Z,80.20
2022-10-17T05:48:31.929Z,79.31
2022-10-17T05:51:00.532Z,79.58
2022-10-17T05:53:32.478Z,79.17
2022-10-17T05:56:00.670Z,78.61
2022-10-17T06:01:15.852Z,77.77
2022-10-17T06:03:43.188Z,78.15
2022-10-17T06:06:13.292Z,78.16
2022-10-17T06:08:42.003Z,78.47
2022-10-17T06:11:10.582Z,78.73
2022-10-17T06:13:40.906Z,80.10
2022-10-17T06:16:09.615Z,80.96
2022-10-17T06:18:36.770Z,81.41
2022-10-17T06:21:06.100Z,81.46
2022-10-17T06:23:33.385Z,82.00
2022-10-17T06:26:04.429Z,82.58
2022-10-17T06:28:32.262Z,82.97
2022-10-17T06:31:00.283Z,83.33
2022-10-17T06:33:27.533Z,83.60
2022-10-17T06:35:58.161Z,83.78
2022-10-17T06:38:25.601Z,83.38
2022-10-17T06:40:53.156Z,84.58
2022-10-17T06:43:26.946Z,84.93
2022-10-17T06:48:22.997Z,83.50
2022-10-17T06:50:50.514Z,83.14
2022-10-17T06:53:17.840Z,83.04
2022-10-17T06:55:45.617Z,82.62
2022-10-17T06:58:13.023Z,81.85
2022-10-17T07:00:42.130Z,81.13
2022-10-17T07:03:09.546Z,81.76
2022-10-17T07:05:37.268Z,81.20
2022-10-17T07:08:05.193Z,80.46
2022-10-17T07:10:32.816Z,80.70
2022-10-17T07:13:01.122Z,80.07
2022-10-17T07:15:28.632Z,78.37
2022-10-17T07:17:57.232Z,77.82
2022-10-17T07:20:25.125Z,77.46
2022-10-17T07:22:52.643Z,77.20
2022-10-17T07:25:20.339Z,76.91
2022-10-17T07:27:48.775Z,73.81
2022-10-17T07:30:16.656Z,74.08
2022-10-17T07:32:44.423Z,74.27
2022-10-17T07:35:13.987Z,73.58
2022-10-17T07:37:41.490Z,71.86
2022-10-17T07:40:09.871Z,72.05
2022-10-17T07:45:10.643Z,69.75
2022-10-17T07:47:37.897Z,69.75
2022-10-17T07:50:06.372Z,69.48
2022-10-17T07:52:35.376Z,68.52
2022-10-17T07:55:02.939Z,68.87
2022-10-17T07:57:30.242Z,67.50
2022-10-17T07:59:57.807Z,66.19
2022-10-17T08:02:29.202Z,67.14
2022-10-17T08:04:56.859Z,66.15
2022-10-17T08:07:27.011Z,66.20
2022-10-17T08:09:58.502Z,66.88
2022-10-17T08:12:25.923Z,66.48
2022-10-17T08:14:53.501Z,68.33
2022-10-17T08:17:21.006Z,67.33
2022-10-17T08:19:56.941Z,67.37
2022-10-17T08:22:29.630Z,67.00
2022-10-17T08:24:59.079Z,67.06
2022-10-17T08:27:26.512Z,67.41
2022-10-17T08:29:54.479Z,66.25
2022-10-17T08:32:23.766Z,66.18
2022-10-17T08:34:51.652Z,66.84
2022-10-17T08:37:19.206Z,66.28
2022-10-17T08:39:46.827Z,64.93
2022-10-17T08:42:33.286Z,65.32
2022-10-17T08:45:09.879Z,65.32
2022-10-17T08:47:42.443Z,64.51
2022-10-17T08:50:23.091Z,63.86
2022-10-17T08:52:53.638Z,63.82
2022-10-17T08:55:30.442Z,63.30
2022-10-17T08:57:59.296Z,62.21
2022-10-17T09:00:29.814Z,62.02
2022-10-17T09:03:14.502Z,61.20
2022-10-17T09:05:50.230Z,61.78
2022-10-17T09:08:37.565Z,61.26
2022-10-17T09:11:16.041Z,61.04
2022-10-17T09:13:57.223Z,60.47
2022-10-17T09:16:40.373Z,59.05
2022-10-17T09:19:12.941Z,59.44
2022-10-17T09:21:46.342Z,59.15
2022-10-17T09:24:17.998Z,58.86
2022-10-17T09:26:46.161Z,60.06
2022-10-17T09:29:22.010Z,59.40
2022-10-17T09:31:58.515Z,57.90
2022-10-17T09:34:29.186Z,56.34
2022-10-17T09:36:58.709Z,55.84
2022-10-17T09:39:29.804Z,56.77
2022-10-17T09:41:59.370Z,55.16
2022-10-17T09:44:31.676Z,54.19
2022-10-17T09:47:19.028Z,54.41
2022-10-17T09:49:48.338Z,53.00
2022-10-17T09:52:18.426Z,55.50
2022-10-17T09:54:48.624Z,53.56
2022-10-17T09:57:18.655Z,52.43
2022-10-17T09:59:55.761Z,51.63
2022-10-17T10:02:25.057Z,52.22
2022-10-17T10:05:06.687Z,51.46
2022-10-17T10:07:37.550Z,50.79
2022-10-17T10:10:08.489Z,51.78
2022-10-17T10:12:38.059Z,51.28
2022-10-17T10:15:31.481Z,50.35
2022-10-17T10:17:59.364Z,51.23
2022-10-17T10:20:31.026Z,49.74
2022-10-17T10:23:12.705Z,49.58
2022-10-17T10:25:51.921Z,50.56
2022-10-17T10:28:19.926Z,48.19
2022-10-17T10:30:52.968Z,48.20
2022-10-17T10:33:23.710Z,50.72
2022-10-17T10:35:57.500Z,49.15
2022-10-17T10:38:25.579Z,49.09
2022-10-17T10:40:55.269Z,49.80
2022-10-17T10:43:29.596Z,49.68
2022-10-17T10:45:59.102Z,48.98
2022-10-17T10:48:30.442Z,49.24
2022-10-17T10:51:01.766Z,48.50
2022-10-17T10:53:41.864Z,47.65
2022-10-17T10:56:14.554Z,47.43
2022-10-17T10:58:53.437Z,46.75
2022-10-17T11:01:28.285Z,46.66
2022-10-17T11:04:19.757Z,47.08
2022-10-17T11:06:48.238Z,46.89
2022-10-17T11:09:32.947Z,45.98
2022-10-17T11:12:12.240Z,44.84
2022-10-17T11:14:45.359Z,46.41
2022-10-17T11:17:22.214Z,45.77
2022-10-17T11:19:57.049Z,45.34
2022-10-17T11:22:29.355Z,43.67
2022-10-17T11:25:00.669Z,47.10
2022-10-17T11:27:29.710Z,44.07
2022-10-17T11:29:58.543Z,44.02
2022-10-17T11:32:31.837Z,43.17
2022-10-17T11:35:05.619Z,44.25
2022-10-17T11:37:36.842Z,42.08
2022-10-17T11:40:14.826Z,42.81
2022-10-17T11:42:55.092Z,43.83
2022-10-17T11:45:26.472Z,44.53
2022-10-17T11:48:02.119Z,43.15
2022-10-17T11:53:22.182Z,43.83
2022-10-17T11:55:52.793Z,43.42
2022-10-17T11:58:31.352Z,42.46
2022-10-17T12:01:07.727Z,42.79
2022-10-17T12:03:47.101Z,42.21
2022-10-17T12:06:20.605Z,43.52
2022-10-17T12:09:07.401Z,43.73
2022-10-17T12:11:45.527Z,42.34
2022-10-17T12:14:27.527Z,43.87
2022-10-17T12:16:54.999Z,43.06
2022-10-17T12:19:33.200Z,43.52
2022-10-17T12:22:07.247Z,43.43
2022-10-17T12:24:40.553Z,43.23
2022-10-17T12:27:39.784Z,42.43
2022-10-17T12:30:18.734Z,43.65
2022-10-17T12:33:12.115Z,43.11
2022-10-17T12:35:40.952Z,43.85
2022-10-17T12:38:27.420Z,43.15
2022-10-17T12:41:05.887Z,41.99
2022-10-17T12:43:57.196Z,40.98
2022-10-17T12:46:57.289Z,42.43
2022-10-17T12:49:39.180Z,43.70
2022-10-17T12:52:20.969Z,43.53
2022-10-17T12:55:00.556Z,42.36
2022-10-17T12:57:41.263Z,42.35
2022-10-17T13:00:17.555Z,42.39
2022-10-17T13:02:45.574Z,42.67
2022-10-17T13:05:18.337Z,41.13
2022-10-17T13:07:49.720Z,41.96
2022-10-17T13:10:23.476Z,41.81
2022-10-17T13:12:53.208Z,39.29
2022-10-17T13:15:21.845Z,40.48
2022-10-17T13:17:57.776Z,41.15
2022-10-17T13:20:30.574Z,40.25
2022-10-17T13:23:00.645Z,41.51
2022-10-17T13:25:28.680Z,41.88
2022-10-17T13:28:11.826Z,42.36
2022-10-17T13:30:39.486Z,42.04
2022-10-17T13:33:27.540Z,42.28
2022-10-17T13:36:00.293Z,42.69
2022-10-17T13:38:31.890Z,43.83
2022-10-17T13:41:23.226Z,43.57
2022-10-17T13:43:49.669Z,42.62
2022-10-17T13:46:37.351Z,42.53
2022-10-17T13:49:12.859Z,43.00
2022-10-17T13:51:44.317Z,42.64
2022-10-17T13:54:30.772Z,43.46
2022-10-17T13:56:59.637Z,43.35
2022-10-17T13:59:32.431Z,44.16
2022-10-17T14:02:01.083Z,44.76
2022-10-17T14:04:33.056Z,44.33
2022-10-17T14:07:23.207Z,44.50
2022-10-17T14:09:52.078Z,44.54
2022-10-17T14:12:21.734Z,45.57
2022-10-17T14:15:09.777Z,45.73
2022-10-17T14:17:39.571Z,46.62
2022-10-17T14:20:47.878Z,46.54
2022-10-17T14:23:21.462Z,45.99
2022-10-17T14:25:45.215Z,46.37
2022-10-17T14:28:15.629Z,46.76
2022-10-17T14:30:56.408Z,47.72
2022-10-17T14:33:28.507Z,46.54
2022-10-17T14:35:57.824Z,47.10
2022-10-17T14:38:26.111Z,47.43
2022-10-17T14:41:29.705Z,47.48
2022-10-17T14:43:54.395Z,47.25
2022-10-17T14:46:22.139Z,47.48
2022-10-17T14:48:54.124Z,47.95
2022-10-17T14:51:21.971Z,47.53
2022-10-17T14:54:17.630Z,48.30
2022-10-17T14:56:50.857Z,48.48
2022-10-17T14:59:35.471Z,48.83
2022-10-17T15:02:05.996Z,49.20
2022-10-17T15:04:33.495Z,50.23
2022-10-17T15:07:00.697Z,49.68
2022-10-17T15:09:28.446Z,50.41
2022-10-17T15:12:00.205Z,50.43
2022-10-17T15:14:27.864Z,50.46
2022-10-17T15:16:55.174Z,50.75
2022-10-17T15:19:22.705Z,50.83
2022-10-17T15:21:50.062Z,51.30
2022-10-17T15:24:17.668Z,51.20
2022-10-17T15:26:44.939Z,51.81
2022-10-17T15:29:15.991Z,52.21
2022-10-17T15:31:43.329Z,53.08
2022-10-17T15:34:11.205Z,53.22
2022-10-17T15:36:41.697Z,53.55
2022-10-17T15:39:10.128Z,54.71
2022-10-17T15:41:37.482Z,54.89
2022-10-17T15:44:05.593Z,55.08
2022-10-17T15:46:36.108Z,55.06
2022-10-17T15:49:05.635Z,55.45
2022-10-17T15:51:35.707Z,55.72
2022-10-17T15:54:03.427Z,56.12
2022-10-17T15:56:33.057Z,56.39
2022-10-17T15:59:02.653Z,56.75
2022-10-17T16:01:31.682Z,56.90
2022-10-17T16:04:00.921Z,56.72
2022-10-17T16:06:28.249Z,56.59
2022-10-17T16:08:55.952Z,57.20
2022-10-17T16:11:30.803Z,56.68
2022-10-17T16:14:00.579Z,56.63
2022-10-17T16:16:28.060Z,56.85
2022-10-17T16:18:55.953Z,56.65
2022-10-17T16:21:27.793Z,56.13
2022-10-17T16:23:55.983Z,56.26
2022-10-17T16:26:23.609Z,57.20
2022-10-17T16:28:51.250Z,57.93
2022-10-17T16:31:22.765Z,57.74
2022-10-17T16:33:52.958Z,56.66
2022-10-17T16:36:20.716Z,57.11
2022-10-17T16:38:50.455Z,57.69
2022-10-17T16:41:22.431Z,55.48
2022-10-17T16:43:50.899Z,55.63
2022-10-17T16:46:18.856Z,57.41
2022-10-17T16:48:47.341Z,57.45
2022-10-17T16:51:15.865Z,57.61
2022-10-17T16:53:43.597Z,55.46
2022-10-17T16:56:14.667Z,54.14
2022-10-17T16:58:42.694Z,56.29
2022-10-17T17:01:12.003Z,58.08
2022-10-17T17:03:41.810Z,56.87
2022-10-17T17:06:12.750Z,58.51
2022-10-17T17:08:43.334Z,55.85
2022-10-17T17:11:14.941Z,57.54
2022-10-17T17:13:42.925Z,59.67
2022-10-17T17:16:12.579Z,60.47
2022-10-17T17:18:41.149Z,58.97
2022-10-17T17:21:10.503Z,60.97
2022-10-17T17:23:40.339Z,60.82
2022-10-17T17:26:10.446Z,60.29
2022-10-17T17:28:40.184Z,60.56
2022-10-17T17:31:12.452Z,60.60
2022-10-17T17:33:41.373Z,60.78
2022-10-17T17:36:12.796Z,60.97
2022-10-17T17:38:40.427Z,61.38
2022-10-17T17:41:07.938Z,62.05
2022-10-17T17:43:36.131Z,61.00
2022-10-17T17:46:05.316Z,61.49
2022-10-17T17:48:33.707Z,60.79
2022-10-17T17:51:04.050Z,60.58
2022-10-17T17:53:32.042Z,62.05
2022-10-17T17:56:04.051Z,62.40
2022-10-17T17:58:32.302Z,61.71
2022-10-17T18:00:59.641Z,63.41
2022-10-17T18:03:28.675Z,62.35
2022-10-17T18:05:58.021Z,62.11
2022-10-17T18:08:25.788Z,60.73
2022-10-17T18:10:53.122Z,62.32
2022-10-17T18:13:21.108Z,63.34
2022-10-17T18:15:50.330Z,63.21
2022-10-17T18:18:18.307Z,64.14
2022-10-17T18:20:47.032Z,63.28
2022-10-17T18:23:14.698Z,64.35
2022-10-17T18:25:41.995Z,65.16
2022-10-17T18:28:10.626Z,62.14
2022-10-17T18:30:38.354Z,62.34
2022-10-17T18:33:06.104Z,63.61
2022-10-17T18:35:34.686Z,64.98
2022-10-17T18:38:03.720Z,65.58
2022-10-17T18:40:31.051Z,63.23
2022-10-17T18:42:58.646Z,64.14
2022-10-17T18:45:26.289Z,63.95
2022-10-17T18:47:54.071Z,62.73
2022-10-17T18:50:23.192Z,65.00
2022-10-17T18:52:51.367Z,66.11
2022-10-17T18:55:20.142Z,66.68
2022-10-17T18:57:48.292Z,66.18
2022-10-17T19:00:16.079Z,62.12
2022-10-17T19:02:43.672Z,61.16
2022-10-17T19:05:10.918Z,66.65
2022-10-17T19:07:38.547Z,66.06
2022-10-17T19:10:06.844Z,63.43
2022-10-17T19:12:36.072Z,69.70
2022-10-17T19:15:03.855Z,65.98
2022-10-17T19:17:32.002Z,69.71
2022-10-17T19:19:59.453Z,71.49
2022-10-17T19:22:27.109Z,71.86
2022-10-17T19:24:54.472Z,74.08
2022-10-17T19:27:22.417Z,75.25
2022-10-17T19:29:51.114Z,73.58
2022-10-17T19:32:20.749Z,74.11
2022-10-17T19:34:50.278Z,75.30
2022-10-17T19:37:17.757Z,71.55
2022-10-17T19:39:45.147Z,76.11
2022-10-17T19:42:12.942Z,76.31
2022-10-17T19:44:40.209Z,76.11
2022-10-17T19:47:09.292Z,77.23
2022-10-17T19:49:36.611Z,76.55
2022-10-17T19:52:04.526Z,75.38
2022-10-17T19:54:31.999Z,73.52
2022-10-17T19:56:59.631Z,72.19
2022-10-17T19:59:26.863Z,71.14
2022-10-17T20:01:54.561Z,70.33
2022-10-17T20:04:23.344Z,68.78
2022-10-17T20:06:51.126Z,68.33
2022-10-17T20:09:18.395Z,66.64
2022-10-17T20:11:46.286Z,66.89
2022-10-17T20:14:13.592Z,67.23
2022-10-17T20:16:41.185Z,67.55
2022-10-17T20:19:10.031Z,68.56
2022-10-17T20:21:39.790Z,68.32
2022-10-17T20:24:11.740Z,66.72
2022-10-17T20:26:40.199Z,65.14
2022-10-17T20:29:12.065Z,63.71
2022-10-17T20:31:41.465Z,64.46
2022-10-17T20:34:11.555Z,63.70
2022-10-17T20:36:41.037Z,63.81
2022-10-17T20:39:10.058Z,63.55
2022-10-17T20:41:38.199Z,62.84
2022-10-17T20:44:05.814Z,61.69
2022-10-17T20:46:38.522Z,60.78
2022-10-17T20:49:15.038Z,59.93
2022-10-17T20:51:44.440Z,57.36
2022-10-17T20:54:12.189Z,58.38
2022-10-17T20:56:40.343Z,57.09
2022-10-17T20:59:10.939Z,56.91
2022-10-17T21:01:38.554Z,57.03
2022-10-17T21:04:33.267Z,57.75
2022-10-17T21:06:55.014Z,58.20
2022-10-17T21:09:22.569Z,57.96
2022-10-17T21:11:51.032Z,57.95
2022-10-17T21:14:18.516Z,57.27
2022-10-17T21:16:46.228Z,57.44
2022-10-17T21:19:14.589Z,56.96
2022-10-17T21:21:44.703Z,56.56
2022-10-17T21:24:14.987Z,56.60
2022-10-17T21:26:44.258Z,57.00
2022-10-17T21:29:12.671Z,57.77
2022-10-17T21:31:42.033Z,58.43
2022-10-17T21:34:16.964Z,58.07
2022-10-17T21:36:45.245Z,57.99
2022-10-17T21:39:15.062Z,57.89
2022-10-17T21:41:43.718Z,58.16
2022-10-17T21:44:13.963Z,57.98
2022-10-17T21:46:42.007Z,57.88
2022-10-17T21:49:10.863Z,58.12
2022-10-17T21:51:39.603Z,58.92
2022-10-17T21:54:07.302Z,59.62
2022-10-17T21:56:36.566Z,59.45
2022-10-17T21:59:05.007Z,59.14
2022-10-17T22:01:34.584Z,59.49
2022-10-17T22:04:03.757Z,59.53
2022-10-17T22:06:41.056Z,59.76
2022-10-17T22:09:11.790Z,59.04
2022-10-17T22:11:41.842Z,58.84
2022-10-17T22:14:12.227Z,58.93
2022-10-17T22:16:40.754Z,59.02
2022-10-17T22:19:08.759Z,59.14
2022-10-17T22:21:36.876Z,59.72
2022-10-17T22:24:07.047Z,59.47
2022-10-17T22:26:36.661Z,59.94
2022-10-17T22:29:07.258Z,59.69
2022-10-17T22:31:35.845Z,59.71
2022-10-17T22:34:06.686Z,58.57
2022-10-17T22:36:35.778Z,58.79
2022-10-17T22:39:04.038Z,58.47
2022-10-17T22:41:31.915Z,58.25
2022-10-17T22:43:59.246Z,58.14
2022-10-17T22:46:28.741Z,58.90
2022-10-17T22:48:56.128Z,58.78
2022-10-17T22:53:56.052Z,57.80
2022-10-17T22:56:24.088Z,58.01
2022-10-17T22:58:51.965Z,58.32
2022-10-17T23:01:21.867Z,58.72
2022-10-17T23:03:51.239Z,59.19
2022-10-17T23:06:19.730Z,59.22
2022-10-17T23:08:47.539Z,59.49
2022-10-17T23:11:16.165Z,59.37
2022-10-17T23:13:43.435Z,59.86
2022-10-17T23:16:11.125Z,60.67
2022-10-17T23:18:39.052Z,60.99
2022-10-17T23:21:08.882Z,61.67
2022-10-17T23:23:36.888Z,61.99
2022-10-17T23:26:08.999Z,62.19
2022-10-17T23:28:36.576Z,62.69
2022-10-17T23:31:12.431Z,62.68
2022-10-17T23:33:39.763Z,62.09
2022-10-17T23:36:09.906Z,62.50
2022-10-17T23:38:37.379Z,62.38
2022-10-17T23:41:05.431Z,62.47
2022-10-17T23:43:32.975Z,62.31
2022-10-17T23:46:01.167Z,62.44
2022-10-17T23:48:29.298Z,61.76
2022-10-17T23:50:57.293Z,61.65
2022-10-17T23:53:27.124Z,61.58
2022-10-17T23:55:54.800Z,61.35
2022-10-17T23:58:22.074Z,61.62
